Time;durP1;ratioP1;P1;durP2;ratioP2;P2;SDS_P1;SDS_P2;PMS_P1;PMS_P2;Temp;Humidity;BMP_temperature;BMP_pressure;BME280_temperature;BME280_humidity;BME280_pressure;Samples;Min_cycle;Max_cycle;Signal;HPM_P1;HPM_P2
2024/02/19 00:00:57;;;;;;;4.50;2.10;;;;;;;-2.08;71.34;101131.25;107675;1259;71808;-77
2024/02/19 00:03:24;;;;;;;5.50;2.50;;;;;;;-2.11;71.68;101137.61;107557;1259;69010;-76
2024/02/19 00:05:52;;;;;;;4.20;2.40;;;;;;;-2.13;71.73;101135.94;108649;1259;71390;-77
2024/02/19 00:08:19;;;;;;;4.20;2.10;;;;;;;-2.18;71.76;101134.19;107818;1261;59741;-75
2024/02/19 00:10:47;;;;;;;4.80;2.00;;;;;;;-2.22;71.92;101136.40;105654;1264;60932;-75
2024/02/19 00:13:15;;;;;;;5.10;2.30;;;;;;;-2.26;71.87;101136.20;105305;1265;73400;-73
2024/02/19 00:15:43;;;;;;;3.90;2.40;;;;;;;-2.31;71.95;101130.48;105641;1255;70653;-74
2024/02/19 00:18:11;;;;;;;3.20;1.80;;;;;;;-2.34;72.10;101128.85;105622;1258;71507;-75
2024/02/19 00:20:39;;;;;;;6.60;2.80;;;;;;;-2.39;72.39;101130.55;105523;1256;60054;-74
2024/02/19 00:23:06;;;;;;;3.30;1.90;;;;;;;-2.44;72.51;101132.11;105646;1256;60000;-75
2024/02/19 00:25:34;;;;;;;5.80;2.80;;;;;;;-2.41;72.52;101134.44;105539;1256;72043;-75
2024/02/19 00:28:01;;;;;;;7.00;3.70;;;;;;;-2.35;72.51;101137.20;105634;1255;69253;-75
2024/02/19 00:30:29;;;;;;;6.30;3.50;;;;;;;-2.38;72.79;101135.20;105665;1258;70296;-75
2024/02/19 00:32:56;;;;;;;9.00;6.10;;;;;;;-2.44;72.96;101134.20;105522;1256;59735;-74
2024/02/19 00:35:25;;;;;;;8.40;5.70;;;;;;;-2.49;73.16;101134.90;105562;1258;59692;-76
2024/02/19 00:37:53;;;;;;;9.80;6.00;;;;;;;-2.55;73.38;101133.34;105478;1260;72067;-76
2024/02/19 00:40:20;;;;;;;8.90;6.10;;;;;;;-2.59;73.49;101132.77;105710;1261;68805;-77
2024/02/19 00:42:48;;;;;;;10.70;7.70;;;;;;;-2.63;73.75;101133.08;105550;1261;71437;-77
2024/02/19 00:45:16;;;;;;;12.80;9.30;;;;;;;-2.67;73.70;101133.20;105626;1257;59757;-77
2024/02/19 00:47:44;;;;;;;12.70;9.20;;;;;;;-2.71;73.87;101134.05;105610;1261;60244;-77
2024/02/19 00:50:11;;;;;;;19.40;13.10;;;;;;;-2.67;73.80;101131.64;106708;1256;72051;-76
2024/02/19 00:52:40;;;;;;;19.00;14.10;;;;;;;-2.57;73.78;101133.23;107335;1255;69098;-76
2024/02/19 00:55:08;;;;;;;23.30;14.90;;;;;;;-2.54;73.69;101132.48;108154;1254;71571;-76
2024/02/19 00:57:37;;;;;;;26.50;17.40;;;;;;;-2.56;73.87;101126.97;108744;1255;59647;-75
2024/02/19 01:00:06;;;;;;;28.30;18.50;;;;;;;-2.55;74.03;101128.67;108310;1254;59092;-75
2024/02/19 01:02:34;;;;;;;28.00;17.30;;;;;;;-2.57;74.05;101130.63;109121;1255;71557;-76
2024/02/19 01:05:02;;;;;;;37.00;22.20;;;;;;;-2.58;74.12;101129.60;108758;1254;68751;-77
2024/02/19 01:07:31;;;;;;;34.90;23.70;;;;;;;-2.59;74.10;101129.69;106615;1255;72707;-75
2024/02/19 01:09:58;;;;;;;31.70;22.20;;;;;;;-2.63;74.15;101125.63;106278;1256;59741;-75
2024/02/19 01:12:25;;;;;;;31.10;19.40;;;;;;;-2.67;74.22;101128.70;105941;1255;60249;-78
2024/02/19 01:14:53;;;;;;;26.90;18.30;;;;;;;-2.63;74.20;101129.45;105611;1258;73161;-77
2024/02/19 01:17:20;;;;;;;27.50;18.30;;;;;;;-2.57;74.07;101130.12;105557;1255;69562;-75
2024/02/19 01:19:48;;;;;;;27.40;18.70;;;;;;;-2.59;74.36;101130.19;105595;1254;71747;-75
2024/02/19 01:22:15;;;;;;;29.00;17.20;;;;;;;-2.63;74.63;101132.74;105816;1258;59706;-76
2024/02/19 01:24:43;;;;;;;24.30;17.30;;;;;;;-2.67;74.67;101129.26;105601;1254;60062;-76
2024/02/19 01:27:10;;;;;;;21.90;14.20;;;;;;;-2.71;74.87;101130.08;105756;1259;72996;-75
2024/02/19 01:29:38;;;;;;;19.50;14.10;;;;;;;-2.76;74.91;101130.40;105742;1259;70691;-77
2024/02/19 01:32:06;;;;;;;14.90;10.00;;;;;;;-2.81;74.99;101130.54;105632;1254;71420;-77
2024/02/19 01:34:34;;;;;;;15.60;10.50;;;;;;;-2.88;75.16;101131.63;105803;1256;59731;-77
2024/02/19 01:37:04;;;;;;;17.00;9.00;;;;;;;-2.85;75.28;101135.52;105697;1256;60270;-76
2024/02/19 01:39:32;;;;;;;11.10;7.90;;;;;;;-2.79;75.24;101131.15;105811;1259;73278;-75
2024/02/19 01:42:00;;;;;;;10.70;5.90;;;;;;;-2.79;75.40;101131.34;105732;1259;69668;-76
2024/02/19 01:44:27;;;;;;;6.30;5.00;;;;;;;-2.85;75.61;101132.40;105429;1261;72889;-76
2024/02/19 01:46:55;;;;;;;10.10;5.20;;;;;;;-2.90;75.78;101130.66;105667;1256;59906;-75
2024/02/19 01:49:22;;;;;;;8.60;5.60;;;;;;;-2.95;76.08;101134.30;105906;1254;59569;-77
2024/02/19 01:51:50;;;;;;;6.40;4.20;;;;;;;-3.00;76.32;101131.83;105813;1258;73037;-77
2024/02/19 01:54:17;;;;;;;5.90;4.60;;;;;;;-3.03;76.41;101128.77;105969;1254;70296;-75
2024/02/19 01:56:45;;;;;;;7.80;4.40;;;;;;;-3.05;76.59;101122.79;106650;1256;70066;-76
2024/02/19 01:59:12;;;;;;;9.40;4.10;;;;;;;-3.01;76.50;101119.02;106520;1258;60520;-75
2024/02/19 02:01:40;;;;;;;8.20;3.80;;;;;;;-2.91;76.19;101118.54;108751;1255;59281;-75
2024/02/19 02:04:08;;;;;;;6.10;3.40;;;;;;;-2.90;76.43;101115.04;108824;1255;72586;-76
2024/02/19 02:06:36;;;;;;;7.10;3.40;;;;;;;-2.90;76.53;101113.15;106234;1256;68738;-75
2024/02/19 02:09:06;;;;;;;5.60;3.60;;;;;;;-2.92;76.61;101116.14;105771;1261;70427;-76
2024/02/19 02:11:34;;;;;;;6.60;4.00;;;;;;;-2.95;76.73;101116.27;105761;1256;60498;-76
2024/02/19 02:14:02;;;;;;;6.20;4.10;;;;;;;-2.98;76.87;101112.86;105792;1256;60563;-77
2024/02/19 02:16:29;;;;;;;6.80;3.20;;;;;;;-3.00;77.07;101115.20;106229;1260;73765;-75
2024/02/19 02:18:57;;;;;;;7.70;3.60;;;;;;;-3.02;77.14;101112.66;105890;1256;70529;-75
2024/02/19 02:21:25;;;;;;;5.20;2.80;;;;;;;-2.97;77.26;101104.36;105982;1257;73113;-75
2024/02/19 02:23:52;;;;;;;8.70;3.30;;;;;;;-2.88;77.18;101097.81;105751;1260;60549;-75
2024/02/19 02:26:20;;;;;;;5.60;3.10;;;;;;;-2.88;77.34;101095.23;105739;1255;60496;-76
2024/02/19 02:28:47;;;;;;;6.80;3.70;;;;;;;-2.93;77.46;101098.33;105605;1256;73875;-76
2024/02/19 02:31:14;;;;;;;5.30;3.50;;;;;;;-2.95;77.67;101099.63;105683;1255;70193;-76
2024/02/19 02:33:42;;;;;;;6.80;3.70;;;;;;;-2.95;77.90;101102.56;105385;1256;73248;-77
2024/02/19 02:36:12;;;;;;;8.60;3.50;;;;;;;-2.96;77.96;101099.80;105485;1259;60576;-75
2024/02/19 02:38:40;;;;;;;5.40;3.30;;;;;;;-3.00;77.92;101097.16;105726;1260;60413;-75
2024/02/19 02:41:08;;;;;;;5.80;3.20;;;;;;;-2.97;77.91;101095.70;105247;1261;74020;-76
2024/02/19 02:43:36;;;;;;;6.00;3.20;;;;;;;-2.91;77.67;101097.59;105392;1254;70390;-77
2024/02/19 02:46:03;;;;;;;6.20;4.00;;;;;;;-2.95;77.78;101094.74;105790;1253;72872;-75
2024/02/19 02:48:31;;;;;;;10.20;5.80;;;;;;;-3.01;78.14;101095.45;105621;1256;60539;-76
2024/02/19 02:50:58;;;;;;;8.60;5.70;;;;;;;-3.05;78.20;101096.63;106002;1256;60388;-76
2024/02/19 02:53:26;;;;;;;7.90;5.50;;;;;;;-3.10;78.40;101095.75;105677;1259;72633;-74
2024/02/19 02:55:53;;;;;;;9.70;6.00;;;;;;;-3.15;78.69;101095.37;106066;1255;70089;-76
2024/02/19 02:58:21;;;;;;;10.80;6.90;;;;;;;-3.19;78.81;101097.40;107280;1255;71454;-75
2024/02/19 03:00:48;;;;;;;11.90;6.80;;;;;;;-3.22;78.94;101094.02;109044;1255;59702;-76
2024/02/19 03:03:16;;;;;;;8.40;6.10;;;;;;;-3.12;78.98;101097.70;107912;1256;59246;-76
2024/02/19 03:05:44;;;;;;;11.20;7.00;;;;;;;-3.00;78.69;101097.68;106724;1256;72606;-75
2024/02/19 03:08:11;;;;;;;11.60;6.70;;;;;;;-2.99;78.84;101098.85;106037;1255;69034;-75
2024/02/19 03:10:39;;;;;;;11.20;8.50;;;;;;;-3.03;78.98;101098.12;105670;1255;71060;-76
2024/02/19 03:13:07;;;;;;;11.20;8.50;;;;;;;-3.07;79.19;101095.13;105577;1256;60467;-76
2024/02/19 03:15:34;;;;;;;13.40;9.20;;;;;;;-3.13;79.35;101101.70;105638;1260;60496;-74
2024/02/19 03:18:03;;;;;;;13.00;10.80;;;;;;;-3.19;79.42;101097.75;105528;1254;73801;-75
2024/02/19 03:20:30;;;;;;;18.60;12.20;;;;;;;-3.23;79.94;101096.31;105555;1256;70392;-75
2024/02/19 03:22:58;;;;;;;17.40;11.90;;;;;;;-3.18;80.03;101098.23;105657;1256;72688;-76
2024/02/19 03:25:25;;;;;;;16.90;12.70;;;;;;;-3.08;79.88;101096.89;105726;1253;60620;-74
2024/02/19 03:27:55;;;;;;;13.80;9.50;;;;;;;-3.07;79.90;101101.02;105813;1253;60501;-75
2024/02/19 03:30:23;;;;;;;12.60;8.90;;;;;;;-3.08;80.33;101107.46;105696;1256;73911;-74
2024/02/19 03:32:51;;;;;;;15.90;11.20;;;;;;;-3.07;80.71;101103.29;105708;1256;70158;-76
2024/02/19 03:35:19;;;;;;;14.50;10.30;;;;;;;-3.09;80.51;101103.00;105654;1254;72572;-76
2024/02/19 03:37:46;;;;;;;15.60;10.50;;;;;;;-3.14;80.57;101104.86;105677;1260;60377;-76
2024/02/19 03:40:14;;;;;;;17.80;10.50;;;;;;;-3.18;80.71;101107.25;105646;1256;60531;-75
2024/02/19 03:42:41;;;;;;;12.20;8.30;;;;;;;-3.14;80.53;101100.20;105905;1252;74131;-75
2024/02/19 03:45:10;;;;;;;15.60;9.90;;;;;;;-3.07;80.49;101106.04;105723;1258;68240;-75
2024/02/19 03:47:37;;;;;;;19.10;12.90;;;;;;;-3.07;80.69;101111.94;105567;1256;72747;-75
2024/02/19 03:50:05;;;;;;;15.60;11.40;;;;;;;-3.10;81.02;101110.46;105596;1256;60516;-75
2024/02/19 03:52:33;;;;;;;17.30;11.20;;;;;;;-3.13;81.13;101107.95;105653;1256;60384;-75
2024/02/19 03:55:00;;;;;;;16.10;10.10;;;;;;;-3.16;81.46;101103.55;105946;1254;73825;-74
2024/02/19 03:57:28;;;;;;;14.30;10.20;;;;;;;-3.16;81.69;101104.56;107959;1255;69051;-75
2024/02/19 03:59:56;;;;;;;12.70;8.20;;;;;;;-3.15;81.51;101107.49;108419;1256;71514;-76
2024/02/19 04:02:24;;;;;;;14.00;9.60;;;;;;;-3.07;81.33;101104.98;107367;1256;60531;-75
2024/02/19 04:04:51;;;;;;;12.80;7.40;;;;;;;-2.99;81.31;101101.44;105872;1258;60421;-75
2024/02/19 04:07:19;;;;;;;12.80;7.70;;;;;;;-2.98;81.44;101095.02;105842;1260;73887;-76
2024/02/19 04:09:47;;;;;;;12.40;8.80;;;;;;;-3.04;81.34;101100.58;105512;1259;70718;-75
2024/02/19 04:12:14;;;;;;;12.10;8.30;;;;;;;-3.11;81.56;101094.20;105609;1256;72422;-76
2024/02/19 04:14:42;;;;;;;14.10;8.90;;;;;;;-3.13;81.85;101094.29;105672;1254;61021;-76
2024/02/19 04:17:09;;;;;;;13.70;9.00;;;;;;;-3.13;82.19;101093.77;105707;1256;60492;-75
2024/02/19 04:19:37;;;;;;;14.40;8.40;;;;;;;-3.09;81.93;101092.79;106134;1255;71789;-76
2024/02/19 04:22:05;;;;;;;13.90;7.60;;;;;;;-3.01;81.42;101092.70;105699;1259;68966;-75
2024/02/19 04:24:32;;;;;;;39.40;22.50;;;;;;;-3.06;81.25;101091.30;105678;1256;72483;-75
2024/02/19 04:27:00;;;;;;;15.70;10.60;;;;;;;-3.14;81.47;101095.52;105592;1256;60531;-74
2024/02/19 04:29:27;;;;;;;20.50;11.10;;;;;;;-3.20;81.72;101090.84;105809;1258;61121;-75
2024/02/19 04:31:55;;;;;;;17.30;10.80;;;;;;;-3.24;81.63;101088.38;105576;1258;73882;-75
2024/02/19 04:34:22;;;;;;;34.00;17.70;;;;;;;-3.29;81.81;101089.05;105530;1256;70293;-75
2024/02/19 04:36:50;;;;;;;19.00;10.60;;;;;;;-3.31;81.84;101088.42;105479;1261;71476;-73
2024/02/19 04:39:17;;;;;;;18.70;11.00;;;;;;;-3.28;81.58;101090.94;105250;1256;60571;-76
2024/02/19 04:41:45;;;;;;;22.40;14.20;;;;;;;-3.22;81.43;101093.86;105553;1255;60398;-75
2024/02/19 04:44:12;;;;;;;18.20;12.60;;;;;;;-3.26;81.34;101093.11;106660;1254;73021;-74
2024/02/19 04:46:40;;;;;;;15.70;11.00;;;;;;;-3.31;81.54;101092.92;107393;1255;68882;-74
2024/02/19 04:49:07;;;;;;;17.80;11.90;;;;;;;-3.33;81.70;101097.13;106113;1256;70274;-74
2024/02/19 04:51:35;;;;;;;23.10;14.20;;;;;;;-3.34;81.73;101102.90;106459;1255;60432;-75
2024/02/19 04:54:03;;;;;;;18.10;12.30;;;;;;;-3.37;81.83;101103.48;106226;1256;59263;-75
2024/02/19 04:56:31;;;;;;;18.60;11.80;;;;;;;-3.40;81.80;101100.78;108437;1254;72549;-75
2024/02/19 04:58:58;;;;;;;15.40;10.60;;;;;;;-3.35;81.52;101098.07;108318;1255;68937;-73
2024/02/19 05:01:30;;;;;;;17.30;12.40;;;;;;;-3.32;81.30;101095.20;106096;1256;72436;-75
2024/02/19 05:03:58;;;;;;;22.00;12.20;;;;;;;-3.32;81.22;101099.20;105691;1255;60532;-76
2024/02/19 05:06:28;;;;;;;17.30;11.10;;;;;;;-3.35;81.58;101101.02;105682;1259;60510;-75
2024/02/19 05:08:55;;;;;;;18.00;12.10;;;;;;;-3.35;81.86;101101.00;105430;1255;71661;-76
2024/02/19 05:11:23;;;;;;;21.60;15.00;;;;;;;-3.32;82.24;101107.86;105602;1260;69112;-75
2024/02/19 05:13:50;;;;;;;26.50;17.00;;;;;;;-3.32;82.26;101105.96;105744;1256;72665;-75
2024/02/19 05:16:18;;;;;;;23.40;16.50;;;;;;;-3.36;82.04;101102.95;105538;1256;60946;-74
2024/02/19 05:18:46;;;;;;;26.60;15.60;;;;;;;-3.32;82.05;101103.52;105792;1254;60553;-75
2024/02/19 05:21:14;;;;;;;20.10;13.90;;;;;;;-3.20;82.10;101103.16;105727;1258;72856;-75
2024/02/19 05:23:41;;;;;;;25.10;15.40;;;;;;;-3.17;81.79;101103.59;105588;1254;70099;-74
2024/02/19 05:26:09;;;;;;;24.90;15.60;;;;;;;-3.20;82.04;101102.64;105561;1253;72738;-74
2024/02/19 05:28:36;;;;;;;26.60;16.60;;;;;;;-3.19;82.48;101107.79;105763;1258;60485;-76
2024/02/19 05:31:05;;;;;;;27.30;17.70;;;;;;;-3.13;82.93;101107.44;105673;1254;60607;-75
2024/02/19 05:33:33;;;;;;;22.60;13.70;;;;;;;-3.04;83.19;101108.55;105738;1256;74064;-75
2024/02/19 05:36:01;;;;;;;24.00;15.80;;;;;;;-2.87;83.13;101106.98;105440;1260;70652;-75
2024/02/19 05:38:28;;;;;;;24.90;17.40;;;;;;;-2.68;82.71;101107.77;105561;1256;72437;-76
2024/02/19 05:40:55;;;;;;;23.60;15.50;;;;;;;-2.63;82.09;101108.98;105628;1261;60484;-76
2024/02/19 05:43:23;;;;;;;21.10;15.60;;;;;;;-2.64;81.87;101109.02;105666;1258;60350;-76
2024/02/19 05:45:52;;;;;;;21.20;13.20;;;;;;;-2.62;82.08;101113.13;105731;1256;73882;-76
2024/02/19 05:48:21;;;;;;;20.70;12.40;;;;;;;-2.54;82.41;101107.30;106044;1261;68903;-76
2024/02/19 05:50:49;;;;;;;20.00;11.00;;;;;;;-2.41;82.63;101111.73;105910;1256;71362;-78
2024/02/19 05:53:16;;;;;;;12.30;8.10;;;;;;;-2.30;82.22;101112.22;107123;1253;60450;-75
2024/02/19 05:55:44;;;;;;;13.40;7.00;;;;;;;-2.11;81.63;101110.34;109038;1255;59110;-75
2024/02/19 05:58:11;;;;;;;9.30;6.00;;;;;;;-1.90;80.69;101115.69;108313;1260;72590;-77
2024/02/19 06:00:40;;;;;;;9.80;6.10;;;;;;;-1.80;79.82;101111.65;106037;1256;70124;-79
2024/02/19 06:03:08;;;;;;;12.40;6.30;;;;;;;-1.71;79.35;101114.30;107048;1256;71525;-77
2024/02/19 06:05:35;;;;;;;11.20;6.50;;;;;;;-1.67;78.51;101116.77;107717;1256;60933;-77
2024/02/19 06:08:03;;;;;;;9.60;6.90;;;;;;;-1.64;77.90;101112.98;108225;1259;60535;-79
2024/02/19 06:10:30;;;;;;;10.30;6.90;;;;;;;-1.60;77.32;101117.57;105744;1256;72651;-80
2024/02/19 06:12:57;;;;;;;12.30;7.50;;;;;;;-1.60;76.75;101115.63;105752;1260;68917;-80
2024/02/19 06:15:27;;;;;;;15.40;8.80;;;;;;;-1.59;76.36;101112.98;105985;1260;71425;-78
2024/02/19 06:17:54;;;;;;;17.40;8.30;;;;;;;-1.56;76.36;101111.30;105883;1260;61011;-78
2024/02/19 06:20:22;;;;;;;11.40;7.60;;;;;;;-1.42;75.97;101113.93;105762;1258;60443;-81
2024/02/19 06:22:49;;;;;;;11.40;8.10;;;;;;;-1.26;75.38;101117.13;105873;1256;74041;-79
2024/02/19 06:25:17;;;;;;;13.60;7.80;;;;;;;-1.16;75.20;101119.55;105798;1256;69957;-80
2024/02/19 06:27:45;;;;;;;10.60;7.20;;;;;;;-1.09;74.84;101114.74;105900;1260;71061;-80
2024/02/19 06:30:12;;;;;;;13.30;8.40;;;;;;;-1.04;73.89;101113.88;106020;1256;60536;-80
2024/02/19 06:32:40;;;;;;;12.50;7.60;;;;;;;-1.04;73.46;101114.55;105923;1254;60544;-80
2024/02/19 06:35:07;;;;;;;14.90;8.20;;;;;;;-0.99;73.95;101117.67;106636;1256;72380;-79
2024/02/19 06:37:35;;;;;;;15.80;7.40;;;;;;;-0.90;73.57;101119.61;106086;1254;70151;-81
2024/02/19 06:40:03;;;;;;;11.80;6.80;;;;;;;-0.85;72.80;101121.30;105777;1254;72660;-81
2024/02/19 06:42:30;;;;;;;11.30;5.50;;;;;;;-0.78;72.27;101125.88;105834;1259;60498;-80
2024/02/19 06:44:58;;;;;;;14.80;5.60;;;;;;;-0.66;71.54;101122.44;106360;1256;60508;-79
2024/02/19 06:47:26;;;;;;;11.70;5.00;;;;;;;-0.63;70.79;101121.64;106266;1254;73872;-78
2024/02/19 06:49:54;;;;;;;13.30;5.60;;;;;;;-0.61;69.82;101123.46;106721;1260;69163;-79
2024/02/19 06:52:25;;;;;;;13.60;6.50;;;;;;;-0.59;69.56;101122.32;107687;1255;72648;-81
2024/02/19 06:54:52;;;;;;;13.50;6.90;;;;;;;-0.58;69.31;101118.98;108944;1256;58191;-80
2024/02/19 06:57:20;;;;;;;11.20;6.10;;;;;;;-0.58;69.17;101114.66;107960;1259;59228;-80
2024/02/19 06:59:48;;;;;;;13.90;5.70;;;;;;;-0.58;68.72;101113.60;106987;1254;72075;-80
2024/02/19 07:02:16;;;;;;;12.80;5.80;;;;;;;-0.57;68.66;101113.55;108647;1254;72627;-82
2024/02/19 07:04:45;;;;;;;11.40;5.40;;;;;;;-0.53;68.10;101112.20;108319;1259;71860;-81
2024/02/19 07:07:13;;;;;;;9.20;5.30;;;;;;;-0.54;67.54;101115.35;107090;1256;62297;-81
2024/02/19 07:09:41;;;;;;;12.30;6.00;;;;;;;-0.54;67.74;101110.48;107398;1259;60446;-79
2024/02/19 07:12:09;;;;;;;13.60;5.00;;;;;;;-0.51;67.80;101108.42;106753;1254;73935;-79
2024/02/19 07:14:37;;;;;;;9.40;5.50;;;;;;;-0.47;67.51;101108.80;106464;1260;69509;-79
2024/02/19 07:17:04;;;;;;;14.50;6.10;;;;;;;-0.43;67.51;101110.69;106806;1257;72481;-79
2024/02/19 07:19:31;;;;;;;10.50;4.50;;;;;;;-0.37;67.36;101109.60;107363;1255;60280;-79
2024/02/19 07:21:59;;;;;;;8.30;4.40;;;;;;;-0.30;67.17;101107.38;105973;1260;60499;-79
2024/02/19 07:24:28;;;;;;;10.00;3.70;;;;;;;-0.22;66.65;101105.13;106179;1255;72988;-79
2024/02/19 07:26:57;;;;;;;10.20;3.90;;;;;;;-0.17;66.14;101106.84;106199;1254;68967;-79
2024/02/19 07:29:24;;;;;;;9.20;3.90;;;;;;;-0.14;65.46;101105.67;106462;1259;71372;-81
2024/02/19 07:31:52;;;;;;;7.80;4.60;;;;;;;-0.14;65.10;101107.41;106347;1259;60539;-80
2024/02/19 07:34:19;;;;;;;7.20;3.80;;;;;;;-0.14;65.03;101105.32;107016;1259;60212;-81
2024/02/19 07:36:48;;;;;;;15.80;5.10;;;;;;;-0.11;64.76;101102.92;106057;1261;73020;-82
2024/02/19 07:39:17;;;;;;;12.50;4.80;;;;;;;-0.07;64.86;101101.52;105942;1260;70100;-81
2024/02/19 07:41:45;;;;;;;10.40;4.80;;;;;;;-0.00;64.95;101101.58;106238;1260;72531;-82
2024/02/19 07:44:13;;;;;;;11.30;5.90;;;;;;;0.06;64.80;101103.05;106472;1256;61319;-82
2024/02/19 07:46:41;;;;;;;12.00;5.80;;;;;;;0.12;64.65;101100.33;106433;1259;60406;-82
2024/02/19 07:49:08;;;;;;;15.00;7.40;;;;;;;0.18;64.59;101100.60;107206;1253;72771;-83
2024/02/19 07:51:36;;;;;;;11.30;6.20;;;;;;;0.24;63.85;101098.95;109086;1254;69037;-83
2024/02/19 07:54:04;;;;;;;12.40;6.30;;;;;;;0.29;63.57;101095.92;108743;1254;71363;-82
2024/02/19 07:56:32;;;;;;;11.00;6.30;;;;;;;0.35;63.27;101096.18;107957;1254;60417;-83
2024/02/19 07:58:59;;;;;;;12.30;5.50;;;;;;;0.40;63.11;101099.29;107186;1254;60442;-80
2024/02/19 08:01:26;;;;;;;14.60;6.90;;;;;;;0.44;62.63;101093.36;106913;1257;72672;-81
2024/02/19 08:03:54;;;;;;;13.10;6.30;;;;;;;0.44;61.91;101098.05;107507;1254;70625;-80
2024/02/19 08:06:22;;;;;;;12.90;6.90;;;;;;;0.44;61.64;101095.06;106101;1259;71430;-82
2024/02/19 08:08:49;;;;;;;16.10;6.70;;;;;;;0.45;61.32;101097.65;106006;1258;60816;-83
2024/02/19 08:11:18;;;;;;;14.60;6.70;;;;;;;0.46;61.62;101098.65;105991;1257;60422;-82
2024/02/19 08:13:46;;;;;;;13.10;7.20;;;;;;;0.49;61.80;101096.79;106034;1253;73929;-82
2024/02/19 08:16:14;;;;;;;13.80;6.00;;;;;;;0.53;62.07;101095.36;105802;1262;68747;-79
2024/02/19 08:18:42;;;;;;;14.90;7.00;;;;;;;0.60;62.25;101094.17;105924;1260;71278;-79
2024/02/19 08:21:10;;;;;;;18.10;8.90;;;;;;;0.68;61.74;101089.64;105872;1260;60536;-77
2024/02/19 08:23:37;;;;;;;14.50;7.90;;;;;;;0.74;61.50;101088.45;105794;1259;60636;-81
2024/02/19 08:26:05;;;;;;;12.60;6.90;;;;;;;0.82;61.08;101091.93;106083;1254;73918;-79
2024/02/19 08:28:32;;;;;;;12.70;7.40;;;;;;;0.89;60.59;101091.75;106272;1257;69951;-79
2024/02/19 08:31:02;;;;;;;11.10;6.40;;;;;;;0.97;60.34;101087.53;106585;1260;72359;-77
2024/02/19 08:33:30;;;;;;;8.10;5.10;;;;;;;1.08;59.91;101090.67;108104;1254;60396;-79
2024/02/19 08:36:00;;;;;;;7.50;4.30;;;;;;;1.19;59.30;101090.69;106532;1259;60450;-81
2024/02/19 08:38:28;;;;;;;5.50;3.00;;;;;;;1.31;58.25;101092.70;107271;1259;74875;-77
2024/02/19 08:40:56;;;;;;;6.50;2.70;;;;;;;1.43;57.04;101082.16;108475;1254;70470;-76
2024/02/19 08:43:23;;;;;;;2.60;1.50;;;;;;;1.58;55.63;101084.05;108022;1253;72101;-80
2024/02/19 08:45:51;;;;;;;3.70;1.80;;;;;;;1.73;53.13;101083.45;109239;1254;58025;-79
2024/02/19 08:48:19;;;;;;;4.10;2.50;;;;;;;1.88;52.73;101081.66;108901;1254;58762;-81
2024/02/19 08:50:51;;;;;;;5.80;2.60;;;;;;;2.03;52.36;101078.95;107031;1254;72906;-79
2024/02/19 08:53:20;;;;;;;5.30;2.10;;;;;;;2.19;52.19;101079.15;106477;1253;70115;-78
2024/02/19 08:55:47;;;;;;;4.70;2.40;;;;;;;2.35;51.58;101077.42;105855;1260;73851;-79
2024/02/19 08:58:15;;;;;;;6.10;2.90;;;;;;;2.51;51.04;101084.59;106756;1257;61449;-78
2024/02/19 09:00:43;;;;;;;10.20;3.20;;;;;;;2.62;50.50;101079.80;106674;1256;60438;-79
2024/02/19 09:03:11;;;;;;;4.50;2.20;;;;;;;2.75;50.53;101077.20;106702;1259;72651;-80
2024/02/19 09:05:38;;;;;;;4.20;1.90;;;;;;;2.91;50.53;101072.79;105981;1254;70076;-80
2024/02/19 09:08:06;;;;;;;6.70;1.90;;;;;;;3.11;49.53;101074.08;105797;1258;72492;-80
2024/02/19 09:10:34;;;;;;;6.60;2.00;;;;;;;3.23;47.88;101076.91;106260;1260;60540;-79
2024/02/19 09:13:01;;;;;;;6.00;2.10;;;;;;;3.30;48.19;101073.71;106026;1260;60350;-79
2024/02/19 09:15:29;;;;;;;4.00;2.30;;;;;;;3.46;47.56;101071.56;105988;1257;74068;-79
2024/02/19 09:17:56;;;;;;;7.40;2.40;;;;;;;3.63;47.38;101067.24;105781;1260;69181;-79
2024/02/19 09:20:24;;;;;;;5.40;2.50;;;;;;;3.81;47.06;101070.06;105776;1260;75443;-76
2024/02/19 09:22:52;;;;;;;4.40;2.30;;;;;;;4.02;47.23;101069.95;105789;1261;60474;-77
2024/02/19 09:25:20;;;;;;;5.30;2.40;;;;;;;4.31;47.37;101069.61;105976;1259;60442;-80
2024/02/19 09:27:47;;;;;;;5.10;2.20;;;;;;;4.70;47.19;101067.86;106534;1254;75780;-81
2024/02/19 09:30:15;;;;;;;8.00;2.70;;;;;;;5.17;46.42;101067.51;105727;1261;68876;-81
2024/02/19 09:32:43;;;;;;;6.00;3.20;;;;;;;5.64;45.71;101058.23;105839;1254;73208;-79
2024/02/19 09:35:10;;;;;;;6.60;3.20;;;;;;;6.18;45.48;101051.54;105978;1259;60441;-80
2024/02/19 09:37:38;;;;;;;6.90;3.20;;;;;;;6.83;43.40;101050.76;106027;1260;60629;-80
2024/02/19 09:40:08;;;;;;;6.10;3.40;;;;;;;7.39;42.22;101048.71;106343;1254;73964;-80
2024/02/19 09:42:36;;;;;;;6.30;3.80;;;;;;;7.89;41.72;101047.78;109166;1254;69478;-79
2024/02/19 09:45:05;;;;;;;8.10;3.90;;;;;;;8.37;40.61;101043.98;108989;1254;71401;-81
2024/02/19 09:47:36;;;;;;;7.00;4.20;;;;;;;8.89;40.77;101046.59;106610;1257;60430;-80
2024/02/19 09:50:08;;;;;;;7.10;3.80;;;;;;;9.43;40.18;101043.89;106672;1260;61003;-80
2024/02/19 09:52:38;;;;;;;5.40;3.70;;;;;;;10.05;40.16;101039.52;106308;1254;72402;-83
2024/02/19 09:55:06;;;;;;;5.70;4.00;;;;;;;10.69;39.00;101036.42;107025;1260;69985;-79
2024/02/19 09:57:36;;;;;;;6.30;4.20;;;;;;;11.25;39.24;101031.13;106333;1254;74873;-80
2024/02/19 10:00:04;;;;;;;8.00;4.80;;;;;;;11.76;37.45;101027.74;106037;1254;62385;-81
2024/02/19 10:02:38;;;;;;;6.60;4.40;;;;;;;12.19;38.13;101025.04;105941;1255;294902;-81
2024/02/19 10:07:32;;;;;;;5.70;3.70;;;;;;;13.20;35.43;101025.17;104231;1291;599654;-81
2024/02/19 10:10:04;;;;;;;5.30;3.30;;;;;;;13.78;35.18;101020.20;105590;1268;61008;-80
2024/02/19 10:12:33;;;;;;;5.70;3.20;;;;;;;14.38;34.15;101012.05;105566;1267;60253;-80
2024/02/19 10:15:00;;;;;;;4.90;3.30;;;;;;;14.92;33.54;101009.54;105884;1267;73170;-81
2024/02/19 10:17:30;;;;;;;5.50;3.60;;;;;;;15.36;32.59;101006.34;106578;1272;72588;-83
2024/02/19 10:20:05;;;;;;;5.60;3.80;;;;;;;15.70;32.08;100999.79;105536;1267;436077;-78
2024/02/19 10:22:33;;;;;;;7.50;3.80;;;;;;;15.98;31.45;100997.58;105808;1264;60357;-82
2024/02/19 10:25:01;;;;;;;5.30;3.50;;;;;;;16.19;31.43;101002.32;106107;1269;59136;-83
2024/02/19 10:27:33;;;;;;;4.50;2.90;;;;;;;16.39;30.05;101001.02;105947;1262;72667;-84
2024/02/19 10:30:01;;;;;;;3.80;3.00;;;;;;;16.40;29.41;100995.73;105750;1264;70317;-83
2024/02/19 10:32:28;;;;;;;3.10;2.70;;;;;;;16.48;29.34;100995.43;105668;1264;71481;-81
2024/02/19 10:34:56;;;;;;;4.60;3.00;;;;;;;16.55;28.89;100990.24;105941;1269;60194;-80
2024/02/19 10:37:24;;;;;;;3.90;2.80;;;;;;;16.58;28.69;100986.60;108014;1263;59932;-82
2024/02/19 10:39:51;;;;;;;5.00;2.40;;;;;;;16.54;28.73;100986.59;108642;1263;73734;-84
2024/02/19 10:42:20;;;;;;;3.00;2.40;;;;;;;16.57;28.39;100987.30;106971;1264;70914;-81
2024/02/19 10:44:49;;;;;;;4.50;2.30;;;;;;;16.77;28.08;100985.89;106598;1264;71788;-89
2024/02/19 10:47:17;;;;;;;2.90;2.00;;;;;;;17.01;28.13;100977.88;108606;1261;59861;-90
2024/02/19 10:50:05;;;;;;;3.00;2.50;;;;;;;17.40;27.39;100981.32;108728;1263;61051;-86
2024/02/19 10:52:33;;;;;;;2.80;2.10;;;;;;;17.81;26.51;100977.34;108625;1264;71760;-87
2024/02/19 10:55:01;;;;;;;2.40;1.90;;;;;;;17.91;26.22;100974.98;108359;1257;69318;-85
2024/02/19 10:57:54;;;;;;;2.40;1.90;;;;;;;17.89;25.93;100966.55;107202;1257;73024;-89
2024/02/19 11:00:27;;;;;;;4.40;2.50;;;;;;;18.05;25.90;100959.48;106142;1255;60740;-86
2024/02/19 11:03:05;;;;;;;2.90;2.50;;;;;;;18.39;25.85;100956.33;106882;1255;62096;-90
2024/02/19 11:05:38;;;;;;;3.80;2.90;;;;;;;18.65;25.59;100955.43;107087;1262;75377;-89
2024/02/19 11:08:19;;;;;;;3.70;2.50;;;;;;;18.85;24.44;100953.55;106644;1255;71386;-88
2024/02/19 11:10:48;;;;;;;4.00;2.20;;;;;;;18.66;24.53;100956.39;106289;1258;71343;-88
2024/02/19 11:13:30;;;;;;;2.60;2.40;;;;;;;18.54;24.71;100954.54;107236;1254;59045;-94
2024/02/19 11:16:16;;;;;;;3.80;2.70;;;;;;;18.96;25.09;100952.89;107566;1254;61624;-89
2024/02/19 11:18:44;;;;;;;2.60;2.10;;;;;;;19.59;24.93;100949.64;108176;1254;71832;-88